Time;durP1;ratioP1;P1;durP2;ratioP2;P2;SDS_P1;SDS_P2;PMS_P1;PMS_P2;Temp;Humidity;BMP_temperature;BMP_pressure;BME280_temperature;BME280_humidity;BME280_pressure;Samples;Min_cycle;Max_cycle;Signal;HPM_P1;HPM_P2
2023/07/31 00:00:19;;;;;;;6.57;1.85;;;;;;;18.85;100.00;100448.41;7365470;19;20391;-67
2023/07/31 00:02:46;;;;;;;10.25;1.83;;;;;;;18.86;100.00;100448.19;7367670;19;20108;-66
2023/07/31 00:05:13;;;;;;;9.10;1.65;;;;;;;18.85;100.00;100445.72;7361158;19;20566;-66
2023/07/31 00:07:40;;;;;;;6.40;1.83;;;;;;;18.83;100.00;100435.31;7362664;19;20025;-66
2023/07/31 00:10:08;;;;;;;9.02;1.60;;;;;;;18.82;100.00;100438.19;7359033;19;20018;-66
2023/07/31 00:12:35;;;;;;;9.10;1.80;;;;;;;18.77;100.00;100434.31;7365124;19;20047;-66
2023/07/31 00:15:04;;;;;;;10.00;2.08;;;;;;;18.75;100.00;100435.53;7360856;19;20034;-67
2023/07/31 00:17:31;;;;;;;9.10;1.50;;;;;;;18.73;100.00;100425.13;7365614;19;20601;-67
2023/07/31 00:19:58;;;;;;;7.72;1.92;;;;;;;18.72;100.00;100428.00;7363641;19;20014;-67
2023/07/31 00:22:25;;;;;;;9.02;1.70;;;;;;;18.71;100.00;100419.19;7362587;19;20720;-66
2023/07/31 00:24:52;;;;;;;8.95;2.05;;;;;;;18.71;100.00;100423.69;7360195;19;20666;-67
2023/07/31 00:27:19;;;;;;;6.68;1.88;;;;;;;18.71;100.00;100421.84;7364000;19;20021;-66
2023/07/31 00:29:46;;;;;;;6.80;1.85;;;;;;;18.71;100.00;100427.16;7362997;19;20034;-68
2023/07/31 00:32:13;;;;;;;8.38;1.77;;;;;;;18.68;100.00;100427.63;7364517;19;20641;-67
2023/07/31 00:34:40;;;;;;;7.28;1.80;;;;;;;18.67;100.00;100417.97;7363135;19;20014;-67
2023/07/31 00:37:07;;;;;;;5.55;1.60;;;;;;;18.67;100.00;100411.81;7364239;19;20079;-67
2023/07/31 00:39:35;;;;;;;7.20;1.58;;;;;;;18.66;100.00;100415.53;7358506;19;20082;-66
2023/07/31 00:42:02;;;;;;;6.53;1.73;;;;;;;18.67;100.00;100404.66;7364471;19;20018;-69
2023/07/31 00:44:30;;;;;;;3.85;1.50;;;;;;;18.67;100.00;100401.97;7360847;19;20011;-66
2023/07/31 00:46:59;;;;;;;5.45;1.45;;;;;;;18.70;100.00;100395.38;7364640;19;20949;-65
2023/07/31 00:49:27;;;;;;;5.85;1.42;;;;;;;18.69;100.00;100383.91;7359645;19;20018;-67
2023/07/31 00:51:54;;;;;;;6.22;1.10;;;;;;;18.71;100.00;100389.84;7364171;19;20093;-67
2023/07/31 00:54:21;;;;;;;4.85;1.08;;;;;;;18.70;100.00;100384.72;7358180;19;20018;-66
2023/07/31 00:56:50;;;;;;;4.57;0.82;;;;;;;18.74;100.00;100385.94;7364672;19;20133;-67
2023/07/31 00:59:18;;;;;;;4.35;0.88;;;;;;;18.73;100.00;100392.31;7359145;19;20042;-66
2023/07/31 01:01:46;;;;;;;3.78;0.80;;;;;;;18.71;100.00;100381.84;7364015;19;20014;-66
2023/07/31 01:04:13;;;;;;;2.30;1.02;;;;;;;18.69;100.00;100383.13;7359824;19;20015;-68
2023/07/31 01:06:53;;;;;;;5.50;0.90;;;;;;;18.68;100.00;100374.31;7357368;19;20359;-67
2023/07/31 01:09:38;;;;;;;2.40;0.95;;;;;;;18.66;100.00;100368.38;7358824;19;20056;-67
2023/07/31 01:12:07;;;;;;;3.35;0.93;;;;;;;18.69;100.00;100356.47;7361155;19;20344;-67
2023/07/31 01:14:34;;;;;;;2.58;0.60;;;;;;;18.69;100.00;100346.59;7361020;19;20547;-66
2023/07/31 01:17:01;;;;;;;2.67;0.45;;;;;;;18.72;100.00;100343.50;7361484;19;20025;-66
2023/07/31 01:19:29;;;;;;;2.17;0.60;;;;;;;18.73;100.00;100347.81;7359005;19;20019;-66
2023/07/31 01:22:16;;;;;;;3.80;0.70;;;;;;;18.69;100.00;100354.59;7360808;19;20033;-66
2023/07/31 01:25:27;;;;;;;4.55;1.95;;;;;;;18.74;100.00;100343.28;7358145;19;20044;-67
2023/07/31 01:28:02;;;;;;;1.40;0.40;;;;;;;18.76;100.00;100334.03;7358251;19;20025;-66
2023/07/31 01:30:37;;;;;;;1.20;0.40;;;;;;;18.77;100.00;100314.34;7355414;19;20348;-67
2023/07/31 01:33:07;;;;;;;0.82;0.28;;;;;;;18.78;100.00;100326.66;7360628;19;20849;-66
2023/07/31 01:35:35;;;;;;;1.95;0.30;;;;;;;18.78;100.00;100321.31;7359205;19;20471;-67
2023/07/31 01:38:04;;;;;;;3.38;0.40;;;;;;;18.78;100.00;100315.97;7362063;19;20222;-66
2023/07/31 01:40:31;;;;;;;1.27;0.40;;;;;;;18.83;100.00;100306.50;7358206;19;20018;-67
2023/07/31 01:42:58;;;;;;;0.98;0.20;;;;;;;18.85;100.00;100302.56;7360261;19;20088;-66
2023/07/31 01:45:25;;;;;;;2.20;0.40;;;;;;;18.86;100.00;100306.06;7358827;19;20010;-65
2023/07/31 01:47:52;;;;;;;0.80;0.22;;;;;;;18.86;100.00;100298.88;7362542;19;20093;-65
2023/07/31 01:50:19;;;;;;;2.45;0.30;;;;;;;18.87;100.00;100281.03;7360511;19;20008;-66
2023/07/31 01:52:46;;;;;;;3.03;0.40;;;;;;;18.87;100.00;100291.69;7363314;19;20014;-66
2023/07/31 01:55:13;;;;;;;2.65;0.30;;;;;;;18.92;100.00;100281.19;7356824;19;20010;-65
2023/07/31 01:57:41;;;;;;;1.70;0.20;;;;;;;18.88;100.00;100272.81;7360720;19;20078;-66
2023/07/31 02:00:09;;;;;;;1.15;0.20;;;;;;;18.86;100.00;100284.72;7359361;19;20035;-69
2023/07/31 02:02:35;;;;;;;1.13;0.20;;;;;;;18.87;100.00;100275.69;7359798;19;20078;-66
2023/07/31 02:05:03;;;;;;;2.10;0.30;;;;;;;18.85;100.00;100275.91;7356933;19;20675;-66
2023/07/31 02:07:30;;;;;;;1.83;0.30;;;;;;;18.83;100.00;100274.50;7355868;19;20022;-66
2023/07/31 02:09:57;;;;;;;0.80;0.20;;;;;;;18.83;100.00;100279.84;7355368;19;20578;-67
2023/07/31 02:12:24;;;;;;;1.23;0.28;;;;;;;18.82;100.00;100256.88;7361590;19;20667;-67
2023/07/31 02:14:51;;;;;;;2.45;0.30;;;;;;;18.85;100.00;100267.09;7360087;19;20030;-67
2023/07/31 02:17:18;;;;;;;0.77;0.20;;;;;;;18.83;100.00;100262.00;7361551;19;20018;-67
2023/07/31 02:19:45;;;;;;;0.63;0.20;;;;;;;18.83;100.00;100258.50;7358537;19;20029;-66
2023/07/31 02:22:12;;;;;;;2.90;0.88;;;;;;;18.86;100.00;100255.41;7360943;19;20039;-67
2023/07/31 02:24:39;;;;;;;0.80;0.30;;;;;;;18.90;100.00;100251.25;7357343;19;20313;-67
2023/07/31 02:27:06;;;;;;;2.85;0.30;;;;;;;18.91;100.00;100245.69;7358456;19;20026;-66
2023/07/31 02:29:33;;;;;;;0.98;0.20;;;;;;;18.90;100.00;100244.06;7356737;19;20014;-67
2023/07/31 02:32:00;;;;;;;0.75;0.30;;;;;;;18.89;100.00;100253.13;7361329;19;20101;-66
2023/07/31 02:34:28;;;;;;;1.38;0.30;;;;;;;18.90;100.00;100243.25;7357384;19;21009;-66
2023/07/31 02:36:55;;;;;;;1.45;0.40;;;;;;;18.90;100.00;100225.41;7358938;19;20044;-66
2023/07/31 02:39:26;;;;;;;1.48;0.25;;;;;;;18.91;100.00;100227.03;7354811;19;20006;-67
2023/07/31 02:41:53;;;;;;;1.52;0.30;;;;;;;18.93;100.00;100232.16;7359596;19;20428;-67
2023/07/31 02:44:21;;;;;;;0.90;0.20;;;;;;;18.96;100.00;100234.38;7359176;19;20530;-66
2023/07/31 02:46:49;;;;;;;1.40;0.30;;;;;;;18.96;100.00;100227.19;7359874;19;20014;-67
2023/07/31 02:49:16;;;;;;;1.58;0.20;;;;;;;18.99;100.00;100223.28;7359164;19;20019;-66
2023/07/31 02:51:43;;;;;;;2.55;0.40;;;;;;;19.02;100.00;100220.97;7358492;19;20082;-66
2023/07/31 02:54:10;;;;;;;3.30;0.30;;;;;;;19.03;100.00;100216.44;7354128;19;20117;-66
2023/07/31 02:56:37;;;;;;;1.27;0.30;;;;;;;19.00;100.00;100204.34;7359342;19;20371;-66
2023/07/31 02:59:04;;;;;;;1.17;0.30;;;;;;;19.03;100.00;100213.78;7357518;19;20014;-67
2023/07/31 03:01:31;;;;;;;1.42;0.30;;;;;;;19.03;100.00;100201.25;7358463;19;20018;-67
2023/07/31 03:03:59;;;;;;;1.35;0.30;;;;;;;19.04;100.00;100202.09;7355311;19;20015;-68
2023/07/31 03:06:27;;;;;;;1.88;0.43;;;;;;;19.03;100.00;100205.78;7354914;19;20022;-67
2023/07/31 03:08:54;;;;;;;2.05;0.30;;;;;;;19.05;100.00;100207.16;7352053;19;20032;-67
2023/07/31 03:11:21;;;;;;;2.35;0.30;;;;;;;19.07;100.00;100207.78;7361101;19;21692;-67
2023/07/31 03:13:48;;;;;;;1.75;0.30;;;;;;;19.09;100.00;100208.38;7355470;19;20038;-67
2023/07/31 03:16:15;;;;;;;1.58;0.30;;;;;;;19.09;100.00;100202.22;7360872;19;20953;-67
2023/07/31 03:18:42;;;;;;;0.90;0.38;;;;;;;19.07;100.00;100205.09;7361514;19;20897;-67
2023/07/31 03:21:09;;;;;;;2.95;0.40;;;;;;;19.09;100.00;100219.03;7364892;19;20106;-67
2023/07/31 03:23:36;;;;;;;1.48;0.40;;;;;;;19.07;100.00;100215.78;7363313;19;20010;-67
2023/07/31 03:26:06;;;;;;;1.70;0.30;;;;;;;19.08;100.00;100212.06;7361188;19;20019;-65
2023/07/31 03:28:33;;;;;;;1.17;0.40;;;;;;;19.11;100.00;100210.81;7361208;19;20019;-66
2023/07/31 03:31:00;;;;;;;3.03;0.50;;;;;;;19.10;100.00;100211.84;7364529;19;20018;-68
2023/07/31 03:33:27;;;;;;;2.60;0.30;;;;;;;19.08;100.00;100208.59;7367675;19;20518;-66
2023/07/31 03:35:54;;;;;;;1.77;0.50;;;;;;;19.08;100.00;100195.25;7364877;19;21712;-68
2023/07/31 03:38:22;;;;;;;2.78;0.30;;;;;;;19.11;100.00;100200.94;7363793;19;20026;-68
2023/07/31 03:40:49;;;;;;;1.80;0.30;;;;;;;19.14;100.00;100194.38;7361443;19;20022;-65
2023/07/31 03:43:16;;;;;;;1.23;0.20;;;;;;;19.12;100.00;100191.91;7365237;19;20015;-66
2023/07/31 03:45:43;;;;;;;1.25;0.20;;;;;;;19.11;100.00;100186.78;7361820;19;20085;-66
2023/07/31 03:48:10;;;;;;;1.77;0.32;;;;;;;19.12;100.00;100172.44;7366514;19;20011;-66
2023/07/31 03:50:37;;;;;;;1.73;0.35;;;;;;;19.14;100.00;100176.50;7361621;19;20082;-67
2023/07/31 03:53:04;;;;;;;2.08;0.25;;;;;;;19.13;100.00;100172.22;7367044;19;20010;-67
2023/07/31 03:55:31;;;;;;;4.88;0.47;;;;;;;19.14;100.00;100175.69;7362288;19;20800;-67
2023/07/31 03:58:00;;;;;;;1.10;0.20;;;;;;;19.12;100.00;100165.25;7366017;19;20010;-67
2023/07/31 04:00:27;;;;;;;0.88;0.20;;;;;;;19.11;100.00;100168.94;7361525;19;20035;-67
2023/07/31 04:02:54;;;;;;;1.52;0.20;;;;;;;19.09;100.00;100165.69;7364705;19;20764;-68
2023/07/31 04:05:21;;;;;;;4.13;0.22;;;;;;;19.07;100.00;100167.78;7364581;19;20491;-67
2023/07/31 04:07:48;;;;;;;0.32;0.10;;;;;;;19.03;100.00;100173.78;7363781;19;20086;-71
2023/07/31 04:10:15;;;;;;;1.27;0.25;;;;;;;19.04;100.00;100175.41;7356623;19;20035;-67
2023/07/31 04:12:42;;;;;;;1.48;0.30;;;;;;;19.05;100.00;100177.00;7365396;19;20023;-66
2023/07/31 04:15:09;;;;;;;1.45;0.73;;;;;;;19.08;100.00;100173.91;7364235;19;20019;-68
2023/07/31 04:17:36;;;;;;;1.50;0.20;;;;;;;19.10;100.00;100172.63;7365872;19;20619;-66
2023/07/31 04:20:04;;;;;;;1.73;0.50;;;;;;;19.13;100.00;100172.22;7361870;19;20021;-67
2023/07/31 04:22:31;;;;;;;0.93;0.20;;;;;;;19.16;100.00;100162.94;7364797;19;20029;-66
2023/07/31 04:24:58;;;;;;;0.98;0.30;;;;;;;19.17;100.00;100164.56;7361452;19;20336;-66
2023/07/31 04:27:25;;;;;;;2.20;0.20;;;;;;;19.16;100.00;100165.59;7362940;19;20101;-66
2023/07/31 04:29:52;;;;;;;1.77;0.20;;;;;;;19.16;100.00;100157.59;7362478;19;20056;-66
2023/07/31 04:32:20;;;;;;;2.45;0.20;;;;;;;19.19;100.00;100149.16;7364488;19;20086;-66
2023/07/31 04:34:47;;;;;;;1.80;0.20;;;;;;;19.21;100.00;100149.72;7360322;19;20006;-66
2023/07/31 04:37:14;;;;;;;2.08;0.30;;;;;;;19.18;100.00;100148.34;7365211;19;20054;-66
2023/07/31 04:39:41;;;;;;;2.53;0.20;;;;;;;19.21;100.00;100149.72;7357787;19;20060;-66
2023/07/31 04:42:08;;;;;;;1.75;0.20;;;;;;;19.21;100.00;100147.06;7364704;19;20290;-67
2023/07/31 04:44:35;;;;;;;2.75;0.20;;;;;;;19.22;100.00;100148.69;7363538;19;20039;-67
2023/07/31 04:47:03;;;;;;;1.45;0.25;;;;;;;19.22;100.00;100148.69;7364431;19;20022;-66
2023/07/31 04:49:30;;;;;;;0.82;0.10;;;;;;;19.23;100.00;100151.16;7362603;19;20019;-69
2023/07/31 04:51:57;;;;;;;0.85;0.30;;;;;;;19.25;100.00;100150.13;7362642;19;20455;-67
2023/07/31 04:54:24;;;;;;;1.73;0.30;;;;;;;19.21;100.00;100149.72;7359998;19;20031;-66
2023/07/31 04:56:53;;;;;;;1.45;0.20;;;;;;;19.22;100.00;100144.19;7361162;19;20038;-65
2023/07/31 04:59:20;;;;;;;1.55;0.10;;;;;;;19.25;100.00;100152.78;7361897;19;21737;-66
2023/07/31 05:01:47;;;;;;;1.73;0.30;;;;;;;19.25;100.00;100150.13;7365860;19;20018;-67
2023/07/31 05:04:15;;;;;;;2.47;0.20;;;;;;;19.27;100.00;100150.69;7358925;19;20766;-66
2023/07/31 05:06:42;;;;;;;2.05;0.70;;;;;;;19.28;100.00;100150.47;7362498;19;20085;-66
2023/07/31 05:09:10;;;;;;;1.48;0.20;;;;;;;19.30;100.00;100156.38;7356704;19;20102;-66
2023/07/31 05:11:37;;;;;;;2.30;0.20;;;;;;;19.30;100.00;100158.25;7359857;19;20049;-66
2023/07/31 05:14:04;;;;;;;3.42;0.30;;;;;;;19.30;100.00;100155.59;7361794;19;20024;-66
2023/07/31 05:16:31;;;;;;;2.40;0.20;;;;;;;19.31;100.00;100151.84;7364241;19;20478;-67
2023/07/31 05:18:58;;;;;;;1.83;0.20;;;;;;;19.33;100.00;100160.47;7362731;19;20420;-66
2023/07/31 05:21:25;;;;;;;1.58;0.43;;;;;;;19.33;100.00;100168.47;7363910;19;20014;-67
2023/07/31 05:23:53;;;;;;;1.65;0.20;;;;;;;19.33;100.00;100165.78;7357553;19;20108;-66
2023/07/31 05:26:20;;;;;;;1.42;0.20;;;;;;;19.35;100.00;100153.84;7360778;19;20098;-65
2023/07/31 05:28:47;;;;;;;1.88;0.30;;;;;;;19.34;100.00;100154.91;7361967;19;20065;-66
2023/07/31 05:31:14;;;;;;;1.60;0.28;;;;;;;19.36;100.00;100152.81;7362064;19;20097;-65
2023/07/31 05:33:41;;;;;;;1.02;0.20;;;;;;;19.38;100.00;100156.06;7362207;19;20627;-66
2023/07/31 05:36:08;;;;;;;3.33;1.20;;;;;;;19.40;100.00;100166.53;7361898;19;20498;-66
2023/07/31 05:38:35;;;;;;;1.70;0.20;;;;;;;19.42;100.00;100159.91;7360192;19;20053;-68
2023/07/31 05:41:02;;;;;;;0.77;0.10;;;;;;;19.45;100.00;100162.16;7355476;19;20011;-67
2023/07/31 05:43:29;;;;;;;0.98;0.20;;;;;;;19.46;100.00;100155.75;7361553;19;20102;-66
2023/07/31 05:45:57;;;;;;;0.75;0.20;;;;;;;19.47;100.00;100157.41;7362971;19;20039;-67
2023/07/31 05:48:24;;;;;;;1.23;0.20;;;;;;;19.47;100.00;100164.59;7359812;19;20011;-67
2023/07/31 05:50:51;;;;;;;1.80;0.30;;;;;;;19.47;100.00;100161.91;7362245;19;20064;-67
2023/07/31 05:53:18;;;;;;;3.47;0.20;;;;;;;19.47;100.00;100160.06;7362592;19;20117;-67
2023/07/31 05:55:45;;;;;;;2.83;0.22;;;;;;;19.50;100.00;100167.63;7354499;19;20645;-67
2023/07/31 05:58:12;;;;;;;4.07;0.40;;;;;;;19.49;100.00;100158.00;7361966;19;20007;-67
2023/07/31 06:00:40;;;;;;;2.83;0.17;;;;;;;19.51;100.00;100160.41;7356581;19;20499;-66
2023/07/31 06:03:07;;;;;;;2.28;0.30;;;;;;;19.54;100.00;100157.31;7357733;19;20082;-66
2023/07/31 06:05:34;;;;;;;3.05;0.35;;;;;;;19.53;100.00;100161.03;7360832;19;20137;-66
2023/07/31 06:08:01;;;;;;;1.75;0.30;;;;;;;19.54;100.00;100159.97;7362186;19;20021;-67
2023/07/31 06:10:29;;;;;;;1.80;0.20;;;;;;;19.56;100.00;100157.88;7351353;19;20022;-67
2023/07/31 06:12:57;;;;;;;2.03;0.30;;;;;;;19.59;100.00;100158.25;7358853;19;20155;-66
2023/07/31 06:15:24;;;;;;;2.08;0.30;;;;;;;19.61;100.00;100163.34;7358780;19;20082;-68
2023/07/31 06:17:51;;;;;;;1.58;0.20;;;;;;;19.64;100.00;100162.91;7362061;19;20110;-66
2023/07/31 06:20:18;;;;;;;3.88;0.50;;;;;;;19.67;100.00;100159.78;7358495;19;21889;-66
2023/07/31 06:22:45;;;;;;;2.90;0.30;;;;;;;19.69;100.00;100162.22;7362350;19;20094;-66
2023/07/31 06:25:13;;;;;;;3.35;0.30;;;;;;;19.68;100.00;100157.91;7356050;19;20588;-67
2023/07/31 06:27:41;;;;;;;3.92;0.40;;;;;;;19.68;100.00;100149.91;7360160;19;20969;-68
2023/07/31 06:30:08;;;;;;;4.28;0.30;;;;;;;19.62;100.00;100157.78;7359674;19;20815;-67
2023/07/31 06:32:36;;;;;;;2.53;0.30;;;;;;;19.62;100.00;100163.13;7359579;19;20033;-66
2023/07/31 06:35:03;;;;;;;4.13;0.30;;;;;;;19.61;100.00;100166.84;7359479;19;20053;-68
2023/07/31 06:37:30;;;;;;;4.30;0.30;;;;;;;19.61;100.00;100152.69;7360942;19;20078;-67
2023/07/31 06:39:57;;;;;;;3.53;0.70;;;;;;;19.65;100.00;100145.84;7355941;19;20106;-65
2023/07/31 06:42:24;;;;;;;3.28;0.63;;;;;;;19.68;100.00;100148.06;7358344;19;20039;-67
2023/07/31 06:44:51;;;;;;;4.13;0.28;;;;;;;19.69;100.00;100141.69;7357556;19;20015;-65
2023/07/31 06:47:18;;;;;;;3.03;0.30;;;;;;;19.67;100.00;100149.09;7361488;19;20010;-65
2023/07/31 06:49:45;;;;;;;4.45;0.40;;;;;;;19.64;100.00;100150.38;7357150;19;20020;-66
2023/07/31 06:52:12;;;;;;;3.05;0.40;;;;;;;19.62;100.00;100141.78;7363011;19;20094;-67
2023/07/31 06:54:39;;;;;;;2.28;0.32;;;;;;;19.64;100.00;100133.53;7368346;19;20102;-67
2023/07/31 06:57:06;;;;;;;4.65;0.40;;;;;;;19.64;100.00;100136.22;7373968;19;21249;-66
2023/07/31 06:59:33;;;;;;;1.88;0.30;;;;;;;19.65;100.00;100135.19;7375880;19;20006;-67
2023/07/31 07:02:01;;;;;;;2.03;0.25;;;;;;;19.66;100.00;100134.13;7375824;19;20079;-66
2023/07/31 07:04:32;;;;;;;4.60;0.50;;;;;;;19.69;100.00;100130.19;7370996;19;20017;-66
2023/07/31 07:06:59;;;;;;;4.30;0.40;;;;;;;19.70;100.00;100124.63;7372878;19;20506;-66
2023/07/31 07:09:32;;;;;;;2.10;0.40;;;;;;;19.75;100.00;100121.25;7370765;19;20022;-66
2023/07/31 07:11:58;;;;;;;2.75;0.40;;;;;;;19.77;100.00;100111.97;7370724;19;20065;-66
2023/07/31 07:14:25;;;;;;;4.60;0.45;;;;;;;19.80;100.00;100116.88;7370605;19;20021;-67
2023/07/31 07:16:52;;;;;;;4.50;0.40;;;;;;;19.82;100.00;100117.44;7371916;19;20756;-66
2023/07/31 07:19:20;;;;;;;5.18;0.35;;;;;;;19.83;100.00;100113.72;7372052;19;20007;-68
2023/07/31 07:21:47;;;;;;;4.30;0.40;;;;;;;19.82;100.00;100112.09;7372074;19;20097;-66
2023/07/31 07:24:14;;;;;;;3.58;0.50;;;;;;;19.82;100.00;100113.94;7369812;19;21181;-66
2023/07/31 07:26:41;;;;;;;2.33;0.43;;;;;;;19.83;100.00;100104.88;7370706;19;20760;-66
2023/07/31 07:29:10;;;;;;;2.08;0.30;;;;;;;19.83;100.00;100108.38;7371068;19;20057;-66
2023/07/31 07:31:37;;;;;;;2.70;0.40;;;;;;;19.86;100.00;100109.78;7373312;19;20018;-66
2023/07/31 07:34:04;;;;;;;4.00;0.40;;;;;;;19.86;100.00;100101.78;7371268;19;20029;-67
2023/07/31 07:36:32;;;;;;;2.67;0.40;;;;;;;19.84;100.00;100106.53;7372062;19;20021;-66
2023/07/31 07:38:59;;;;;;;2.55;0.45;;;;;;;19.86;100.00;100099.09;7365482;19;20014;-67
2023/07/31 07:41:26;;;;;;;4.65;0.30;;;;;;;19.84;100.00;100104.66;7370742;19;20015;-66
2023/07/31 07:43:53;;;;;;;5.22;0.40;;;;;;;19.87;100.00;100112.22;7367737;19;20467;-67
2023/07/31 07:46:20;;;;;;;1.42;0.30;;;;;;;19.87;100.00;100106.88;7375407;19;20022;-68
2023/07/31 07:48:47;;;;;;;3.28;0.43;;;;;;;19.88;100.00;100097.00;7372857;19;20030;-68
2023/07/31 07:51:14;;;;;;;2.85;0.30;;;;;;;19.88;100.00;100105.00;7373099;19;20882;-66
2023/07/31 07:53:41;;;;;;;3.63;0.30;;;;;;;19.87;100.00;100106.88;7370671;19;20010;-67
2023/07/31 07:56:08;;;;;;;2.05;0.40;;;;;;;19.92;100.00;100095.50;7370203;19;20021;-67
2023/07/31 07:58:35;;;;;;;3.40;0.40;;;;;;;19.98;100.00;100097.25;7370101;19;20498;-67
2023/07/31 08:01:02;;;;;;;3.55;0.70;;;;;;;19.99;100.00;100104.22;7369643;19;20085;-67
2023/07/31 08:03:29;;;;;;;2.35;0.57;;;;;;;19.99;100.00;100090.84;7371854;19;20014;-67
2023/07/31 08:06:00;;;;;;;1.00;0.30;;;;;;;19.97;100.00;100087.59;7359851;19;20018;-66
2023/07/31 08:08:28;;;;;;;1.17;0.10;;;;;;;19.93;100.00;100081.91;7364481;19;20110;-66
2023/07/31 08:10:55;;;;;;;1.65;0.20;;;;;;;19.90;100.00;100079.72;7357556;19;20018;-67
2023/07/31 08:13:22;;;;;;;0.47;0.10;;;;;;;19.84;100.00;100083.31;7360106;19;20018;-68
2023/07/31 08:15:49;;;;;;;0.80;0.20;;;;;;;19.84;100.00;100082.50;7360962;19;20025;-67
2023/07/31 08:18:17;;;;;;;0.40;0.13;;;;;;;19.81;100.00;100082.97;7366951;19;20026;-65
2023/07/31 08:20:44;;;;;;;1.95;0.10;;;;;;;19.77;100.00;100084.44;7363934;19;20680;-69
2023/07/31 08:23:11;;;;;;;1.70;0.20;;;;;;;19.72;100.00;100087.00;7365739;19;20022;-67
2023/07/31 08:25:38;;;;;;;1.08;0.20;;;;;;;19.67;100.00;100071.69;7359411;19;20021;-65
2023/07/31 08:28:06;;;;;;;1.60;0.30;;;;;;;19.64;100.00;100064.13;7365046;19;20019;-67
2023/07/31 08:30:33;;;;;;;3.00;0.30;;;;;;;19.66;100.00;100061.25;7364338;19;20043;-66
2023/07/31 08:33:00;;;;;;;1.13;0.20;;;;;;;19.63;100.00;100066.00;7364577;19;20044;-67
2023/07/31 08:35:28;;;;;;;1.52;0.20;;;;;;;19.62;100.00;100061.69;7360150;19;20138;-66
2023/07/31 08:37:55;;;;;;;1.40;0.30;;;;;;;19.62;100.00;100063.53;7363762;19;20022;-66
2023/07/31 08:40:22;;;;;;;2.05;0.30;;;;;;;19.65;100.00;100084.47;7359550;19;20027;-65
2023/07/31 08:42:54;;;;;;;1.17;0.30;;;;;;;19.64;100.00;100080.97;7363455;19;20093;-67
2023/07/31 08:45:21;;;;;;;2.13;0.40;;;;;;;19.64;100.00;100062.28;7363250;19;20033;-66
2023/07/31 08:47:50;;;;;;;4.68;0.50;;;;;;;19.67;100.00;100055.66;7365680;19;20447;-67
2023/07/31 08:50:20;;;;;;;1.42;0.30;;;;;;;19.68;100.00;100056.47;7363934;19;20033;-67
2023/07/31 08:52:50;;;;;;;2.63;0.30;;;;;;;19.67;100.00;100044.97;7364543;19;20708;-65
2023/07/31 08:55:17;;;;;;;1.63;0.40;;;;;;;19.65;100.00;100047.09;7356324;19;20025;-66
2023/07/31 08:57:46;;;;;;;2.25;0.30;;;;;;;19.61;100.00;100045.91;7363719;19;20044;-66
2023/07/31 09:00:14;;;;;;;2.25;0.40;;;;;;;19.61;100.00;100060.06;7360269;19;20014;-68
2023/07/31 09:02:45;;;;;;;1.52;0.40;;;;;;;19.63;100.00;100054.50;7363926;19;20023;-65
2023/07/31 09:05:13;;;;;;;2.25;0.50;;;;;;;19.65;100.00;100063.09;7361662;19;20018;-66
2023/07/31 09:07:40;;;;;;;3.63;0.50;;;;;;;19.65;100.00;100065.78;7363659;19;20006;-66
2023/07/31 09:10:08;;;;;;;2.45;0.60;;;;;;;19.67;100.00;100054.84;7356821;19;20107;-67
2023/07/31 09:12:36;;;;;;;3.75;0.43;;;;;;;19.64;100.00;100051.59;7364471;19;20065;-67
2023/07/31 09:15:04;;;;;;;2.03;0.52;;;;;;;19.65;100.00;100055.09;7358205;19;20022;-67
2023/07/31 09:17:36;;;;;;;4.30;0.85;;;;;;;19.68;100.00;100062.63;7364258;19;20746;-66
2023/07/31 09:20:20;;;;;;;3.63;0.63;;;;;;;19.71;100.00;100048.81;7359877;19;20014;-67
2023/07/31 09:22:49;;;;;;;6.80;0.60;;;;;;;19.72;100.00;100054.97;7360184;19;20010;-66
2023/07/31 09:25:24;;;;;;;4.80;0.52;;;;;;;19.72;100.00;100045.09;7355388;19;20035;-67
2023/07/31 09:28:01;;;;;;;3.88;0.50;;;;;;;19.75;100.00;100041.16;7362959;19;20276;-66
2023/07/31 09:30:29;;;;;;;1.38;0.50;;;;;;;19.74;100.00;100040.34;7359585;19;20015;-69
2023/07/31 09:33:05;;;;;;;3.47;0.50;;;;;;;19.77;100.00;100026.53;7363950;19;20069;-65
2023/07/31 09:35:35;;;;;;;4.07;0.60;;;;;;;19.80;100.00;100020.75;7360399;19;20022;-67
2023/07/31 09:38:07;;;;;;;2.30;0.55;;;;;;;19.82;100.00;100020.47;7362481;19;20019;-66
2023/07/31 09:40:39;;;;;;;3.10;0.40;;;;;;;19.82;100.00;100013.28;7356569;19;20533;-67
2023/07/31 09:43:10;;;;;;;2.38;0.68;;;;;;;19.84;100.00;100021.88;7361386;19;20014;-66
2023/07/31 09:45:42;;;;;;;2.00;0.70;;;;;;;19.86;100.00;100014.44;7361434;19;20018;-66
2023/07/31 09:48:16;;;;;;;4.47;0.70;;;;;;;19.90;100.00;100017.47;7363653;19;20483;-70
2023/07/31 09:50:48;;;;;;;4.43;0.63;;;;;;;19.92;100.00;100000.16;7361135;19;20022;-68
2023/07/31 09:53:18;;;;;;;4.72;0.65;;;;;;;19.97;100.00;99978.09;7362667;19;20033;-67
2023/07/31 09:55:45;;;;;;;5.07;0.80;;;;;;;20.03;100.00;99987.84;7357625;19;20125;-67
2023/07/31 09:58:13;;;;;;;3.05;0.60;;;;;;;20.06;100.00;99993.50;7360619;19;20035;-66
2023/07/31 10:00:40;;;;;;;2.97;0.50;;;;;;;20.07;100.00;100003.16;7355207;19;20045;-66
2023/07/31 10:03:09;;;;;;;1.52;0.30;;;;;;;20.10;100.00;100011.75;7361237;19;20132;-66
2023/07/31 10:05:57;;;;;;;2.47;0.40;;;;;;;20.11;100.00;100008.84;7360487;19;20029;-65
2023/07/31 10:08:31;;;;;;;1.65;0.30;;;;;;;20.13;100.00;100006.75;7361970;19;20454;-67
2023/07/31 10:11:00;;;;;;;1.30;0.30;;;;;;;20.19;100.00;99983.63;7357371;19;20014;-65
2023/07/31 10:13:29;;;;;;;3.05;0.77;;;;;;;20.21;100.00;99974.34;7363044;19;20022;-66
2023/07/31 10:15:59;;;;;;;1.40;0.30;;;;;;;20.26;100.00;99968.28;7356600;19;20013;-66
2023/07/31 10:18:28;;;;;;;1.85;0.52;;;;;;;20.30;100.00;99975.59;7362051;19;20483;-67
2023/07/31 10:20:56;;;;;;;1.05;0.28;;;;;;;20.34;100.00;99991.97;7356744;19;20018;-66
2023/07/31 10:23:25;;;;;;;1.90;0.30;;;;;;;20.36;100.00;100006.75;7358936;19;20017;-67
2023/07/31 10:25:54;;;;;;;1.05;0.30;;;;;;;20.38;100.00;100017.16;7356408;19;20504;-67
2023/07/31 10:28:21;;;;;;;1.83;0.50;;;;;;;20.42;99.69;100021.00;7360400;19;20057;-68
2023/07/31 10:30:50;;;;;;;3.10;0.28;;;;;;;20.45;99.97;100021.34;7359286;19;20030;-67
2023/07/31 10:33:20;;;;;;;2.13;0.30;;;;;;;20.47;100.00;100029.09;7361555;19;20060;-66
2023/07/31 10:35:48;;;;;;;0.88;0.20;;;;;;;20.51;100.00;100040.97;7357837;19;20542;-66
2023/07/31 10:38:15;;;;;;;0.65;0.20;;;;;;;20.53;100.00;100030.03;7361429;19;21220;-67
2023/07/31 10:40:44;;;;;;;1.23;0.20;;;;;;;20.55;100.00;100033.28;7354326;19;20010;-66
2023/07/31 10:43:25;;;;;;;1.67;0.38;;;;;;;20.58;100.00;100040.81;7360866;19;20039;-67
2023/07/31 10:45:53;;;;;;;0.47;0.20;;;;;;;20.64;100.00;100040.69;7360040;19;20018;-66
2023/07/31 10:48:20;;;;;;;0.82;0.25;;;;;;;20.68;100.00;100043.69;7358300;19;20022;-67
2023/07/31 10:50:56;;;;;;;0.85;0.20;;;;;;;20.71;100.00;100045.91;7359951;19;20078;-66
2023/07/31 10:53:31;;;;;;;0.50;0.20;;;;;;;20.70;99.53;100050.44;7361508;19;20795;-66
2023/07/31 10:56:04;;;;;;;1.40;0.30;;;;;;;20.68;99.36;100052.53;7358678;19;20586;-69
2023/07/31 10:58:32;;;;;;;;;;;;;;;20.69;100.00;100053.34;7361903;19;20550;-68
2023/07/31 11:01:02;;;;;;;1.38;0.30;;;;;;;20.61;99.74;100043.84;7356996;19;20247;-66
2023/07/31 11:03:52;;;;;;;2.92;0.38;;;;;;;20.61;99.91;100035.81;7360286;19;20011;-66
2023/07/31 11:06:19;;;;;;;3.03;0.47;;;;;;;20.61;100.00;100027.81;7361139;19;20580;-67
2023/07/31 11:09:00;;;;;;;2.67;0.50;;;;;;;20.59;99.13;100013.03;7349906;19;20183;-67
2023/07/31 11:11:41;;;;;;;0.77;0.30;;;;;;;20.60;97.92;100018.16;7356282;19;20581;-67
2023/07/31 11:14:10;;;;;;;2.38;0.63;;;;;;;20.59;98.13;100011.19;7353231;19;20014;-66
2023/07/31 11:16:37;;;;;;;2.22;0.40;;;;;;;20.62;96.85;100007.22;7349930;19;20019;-67
2023/07/31 11:19:08;;;;;;;4.82;0.40;;;;;;;20.63;97.08;100019.53;7359449;19;20011;-66
2023/07/31 11:21:36;;;;;;;3.30;0.52;;;;;;;20.63;96.90;100014.19;7359031;19;20534;-67